Time;durP1;ratioP1;P1;durP2;ratioP2;P2;SDS_P1;SDS_P2;PMS_P1;PMS_P2;Temp;Humidity;BMP_temperature;BMP_pressure;BME280_temperature;BME280_humidity;BME280_pressure;Samples;Min_cycle;Max_cycle;Signal;HPM_P1;HPM_P2
2022/03/30 00:01:41;;;;;;;12.57;2.55;;;24.00;99.90;;;;;;5039185;28;20431;-83
2022/03/30 00:04:10;;;;;;;9.18;2.30;;;24.00;99.90;;;;;;5036600;28;20540;-86
2022/03/30 00:06:46;;;;;;;12.05;2.67;;;24.00;99.90;;;;;;5038926;28;20382;-83
2022/03/30 00:09:12;;;;;;;12.38;2.50;;;24.00;99.90;;;;;;5040061;28;20366;-82
2022/03/30 00:11:41;;;;;;;13.20;2.60;;;24.00;99.90;;;;;;5037956;28;20377;-93
2022/03/30 00:14:09;;;;;;;9.38;2.30;;;24.20;99.90;;;;;;5021574;28;20370;-83
2022/03/30 00:16:40;;;;;;;11.48;2.45;;;24.40;99.90;;;;;;5037950;28;20425;-83
2022/03/30 00:19:07;;;;;;;9.65;2.30;;;24.40;99.90;;;;;;5037125;28;20369;-87
2022/03/30 00:21:40;;;;;;;11.93;2.30;;;24.50;99.90;;;;;;5035176;28;20374;-89
2022/03/30 00:24:07;;;;;;;15.10;2.60;;;24.60;99.90;;;;;;5038360;28;20430;-87
2022/03/30 00:26:37;;;;;;;15.40;2.45;;;24.70;99.90;;;;;;5039826;28;20385;-96
2022/03/30 00:29:06;;;;;;;14.77;2.40;;;24.60;99.90;;;;;;5021940;28;20399;-90
2022/03/30 00:31:33;;;;;;;7.50;2.13;;;24.20;99.90;;;;;;5020013;28;20383;-82
2022/03/30 00:34:04;;;;;;;9.27;1.90;;;24.20;99.90;;;;;;5020603;28;20376;-82
2022/03/30 00:36:31;;;;;;;12.07;2.20;;;24.50;99.90;;;;;;5007674;28;20453;-95
2022/03/30 00:38:58;;;;;;;8.60;2.03;;;25.00;99.90;;;;;;5017069;28;20429;-93
2022/03/30 00:41:28;;;;;;;7.88;1.90;;;25.00;99.90;;;;;;5017202;28;20383;-90
2022/03/30 00:43:55;;;;;;;6.32;1.67;;;24.70;99.90;;;;;;5000312;28;20464;-94
2022/03/30 00:46:22;;;;;;;5.45;1.63;;;24.50;99.90;;;;;;4996126;28;20471;-83
2022/03/30 00:48:52;;;;;;;6.53;1.60;;;24.50;99.90;;;;;;4999623;28;20836;-96
2022/03/30 00:51:22;;;;;;;5.05;1.60;;;24.50;99.90;;;;;;4978843;28;20387;-81
2022/03/30 00:53:49;;;;;;;5.22;1.70;;;24.50;99.90;;;;;;4977497;28;20389;-94
2022/03/30 00:56:17;;;;;;;7.70;1.88;;;24.60;99.90;;;;;;4977577;28;20494;-85
2022/03/30 00:58:46;;;;;;;6.35;1.90;;;24.80;99.90;;;;;;4980475;28;20382;-86
2022/03/30 01:01:14;;;;;;;8.68;2.00;;;25.20;99.90;;;;;;4945172;28;20452;-83
2022/03/30 01:03:41;;;;;;;9.75;2.10;;;25.50;99.90;;;;;;4936412;28;20468;-83
2022/03/30 01:06:09;;;;;;;7.00;1.98;;;25.70;99.90;;;;;;4981480;28;20434;-83
2022/03/30 01:08:40;;;;;;;11.35;2.15;;;25.50;99.90;;;;;;4984694;28;20378;-83
2022/03/30 01:11:10;;;;;;;8.75;2.30;;;25.10;99.90;;;;;;4931894;28;20383;-82
2022/03/30 01:13:42;;;;;;;8.38;2.10;;;24.90;99.90;;;;;;4977201;28;20406;-86
2022/03/30 01:16:23;;;;;;;7.82;2.25;;;25.20;99.90;;;;;;4949135;28;20521;-85
2022/03/30 01:19:07;;;;;;;13.23;2.40;;;25.50;99.90;;;;;;4934459;28;20442;-90
2022/03/30 01:21:39;;;;;;;11.57;2.45;;;25.60;99.90;;;;;;4963977;28;20370;-96
2022/03/30 01:24:10;;;;;;;13.00;2.45;;;25.20;99.90;;;;;;4984966;28;20474;-84
2022/03/30 01:26:53;;;;;;;9.40;2.53;;;24.60;99.90;;;;;;4985836;28;20867;-83
2022/03/30 01:32:31;;;;;;;14.68;2.72;;;24.20;99.90;;;;;;5003778;28;20384;-85
2022/03/30 01:35:10;;;;;;;10.95;2.53;;;24.30;99.90;;;;;;5004116;28;20394;-83
2022/03/30 01:37:42;;;;;;;13.38;2.80;;;24.40;99.90;;;;;;5000315;28;20407;-92
2022/03/30 01:40:10;;;;;;;8.88;2.05;;;24.60;99.90;;;;;;4986310;28;20381;-88
2022/03/30 01:42:40;;;;;;;12.63;2.57;;;24.60;99.90;;;;;;5003517;28;20399;-85
2022/03/30 01:45:11;;;;;;;9.07;2.10;;;24.50;99.90;;;;;;5022188;28;20386;-83
2022/03/30 01:47:40;;;;;;;8.10;2.10;;;24.50;99.90;;;;;;5022520;28;20375;-87
2022/03/30 01:50:11;;;;;;;9.45;2.30;;;24.80;99.90;;;;;;5026829;28;20425;-86
2022/03/30 01:52:45;;;;;;;7.00;2.15;;;25.30;99.90;;;;;;5023881;28;20391;-84
2022/03/30 01:55:28;;;;;;;6.30;2.03;;;26.00;99.90;;;;;;5011369;28;20374;-83
2022/03/30 01:58:01;;;;;;;8.43;2.25;;;26.00;99.90;;;;;;5007671;28;20423;-90
2022/03/30 02:00:33;;;;;;;9.98;2.35;;;26.10;99.90;;;;;;5020890;28;20386;-82
2022/03/30 02:03:03;;;;;;;10.52;2.13;;;25.60;99.90;;;;;;5019912;28;20403;-82
2022/03/30 02:05:32;;;;;;;9.90;2.30;;;25.00;99.90;;;;;;5021840;28;20401;-82
2022/03/30 02:08:02;;;;;;;10.77;2.33;;;24.40;99.90;;;;;;4974936;28;20376;-84
2022/03/30 02:10:35;;;;;;;8.27;2.17;;;24.00;99.90;;;;;;5041660;28;20373;-83
2022/03/30 02:13:18;;;;;;;10.23;2.70;;;23.80;99.90;;;;;;5044211;28;20380;-85
2022/03/30 02:15:46;;;;;;;10.48;2.55;;;23.80;99.90;;;;;;5025814;28;20766;-84
2022/03/30 02:18:35;;;;;;;9.80;3.00;;;23.70;99.90;;;;;;5046560;28;20384;-87
2022/03/30 02:21:07;;;;;;;8.45;2.92;;;23.90;99.90;;;;;;5043176;28;20370;-86
2022/03/30 02:23:39;;;;;;;9.93;3.25;;;24.30;99.90;;;;;;5042843;28;20386;-84
2022/03/30 02:26:09;;;;;;;11.35;2.70;;;24.60;99.90;;;;;;5041189;28;20389;-83
2022/03/30 02:28:51;;;;;;;8.77;2.10;;;24.70;99.90;;;;;;5041909;28;20385;-85
2022/03/30 02:31:25;;;;;;;8.67;2.13;;;24.70;99.90;;;;;;5044671;28;20372;-81
2022/03/30 02:33:52;;;;;;;9.07;2.20;;;24.80;99.90;;;;;;5040378;28;20384;-83
2022/03/30 02:36:21;;;;;;;10.02;2.65;;;25.20;99.90;;;;;;5044888;28;20416;-90
2022/03/30 02:38:48;;;;;;;9.35;2.58;;;26.60;99.90;;;;;;5042659;28;20389;-85
2022/03/30 02:41:15;;;;;;;9.52;2.60;;;27.40;99.90;;;;;;5040528;28;20377;-87
2022/03/30 02:47:05;;;;;;;13.63;2.50;;;27.70;99.90;;;;;;5037485;28;20389;-84
2022/03/30 02:49:32;;;;;;;12.20;2.70;;;28.00;99.90;;;;;;5040397;28;20812;-85
2022/03/30 02:51:59;;;;;;;10.47;2.50;;;27.70;99.90;;;;;;5043058;28;20440;-85
2022/03/30 02:54:31;;;;;;;6.88;2.30;;;27.20;99.90;;;;;;5040905;28;20358;-84
2022/03/30 02:57:03;;;;;;;9.20;2.40;;;27.70;99.90;;;;;;5042193;28;20405;-84
2022/03/30 02:59:34;;;;;;;8.02;2.13;;;28.70;99.90;;;;;;5040108;28;20373;-84
2022/03/30 03:02:05;;;;;;;6.53;1.90;;;29.60;91.80;;;;;;5038731;28;20427;-85
2022/03/30 03:04:32;;;;;;;7.30;1.85;;;30.10;85.70;;;;;;5040689;28;20404;-86
2022/03/30 03:07:07;;;;;;;6.57;1.90;;;30.50;82.70;;;;;;5039723;28;20399;-94
2022/03/30 03:09:44;;;;;;;7.45;1.90;;;30.70;81.10;;;;;;5009898;28;20377;-96
2022/03/30 03:12:11;;;;;;;4.93;1.58;;;30.40;82.50;;;;;;5040655;28;20374;-96
2022/03/30 03:14:51;;;;;;;6.10;1.60;;;30.40;80.50;;;;;;5036669;28;20394;-85
2022/03/30 03:17:18;;;;;;;6.38;1.95;;;30.30;79.50;;;;;;5040288;28;20428;-83
2022/03/30 03:19:46;;;;;;;6.03;1.90;;;30.00;84.30;;;;;;5021632;28;20873;-86
2022/03/30 03:22:15;;;;;;;6.57;1.67;;;29.20;86.00;;;;;;5039731;28;20384;-93
2022/03/30 03:24:42;;;;;;;6.65;1.85;;;28.20;87.30;;;;;;5021079;28;20428;-96
2022/03/30 03:27:11;;;;;;;6.32;1.80;;;27.50;90.60;;;;;;5039834;28;20389;-84
2022/03/30 03:29:41;;;;;;;6.63;1.67;;;27.30;92.20;;;;;;5024450;28;20362;-91
2022/03/30 03:32:09;;;;;;;5.63;1.67;;;27.70;92.70;;;;;;5023056;28;20393;-87
2022/03/30 03:34:37;;;;;;;5.72;1.80;;;27.50;92.50;;;;;;5039919;28;20962;-84
2022/03/30 03:37:09;;;;;;;4.47;1.60;;;27.20;93.50;;;;;;5022570;28;20851;-96
2022/03/30 03:39:47;;;;;;;5.03;1.63;;;26.80;95.20;;;;;;5038704;28;20396;-88
2022/03/30 03:42:17;;;;;;;6.47;1.50;;;27.30;96.10;;;;;;5007349;28;20381;-89
2022/03/30 03:44:45;;;;;;;5.82;1.52;;;28.30;93.90;;;;;;4993445;28;20427;-96
2022/03/30 03:47:19;;;;;;;4.72;1.30;;;29.20;90.10;;;;;;4966480;28;20421;-96
2022/03/30 03:49:46;;;;;;;4.40;1.30;;;30.20;86.00;;;;;;4995260;28;20381;-86
2022/03/30 03:52:13;;;;;;;2.80;1.20;;;31.30;76.20;;;;;;4995139;28;20381;-95
2022/03/30 03:54:41;;;;;;;6.40;1.30;;;32.10;72.00;;;;;;4994773;28;20390;-87
2022/03/30 03:57:10;;;;;;;3.92;1.05;;;32.40;70.60;;;;;;4996366;28;20527;-84
2022/03/30 03:59:39;;;;;;;2.87;0.80;;;32.40;67.00;;;;;;4996441;28;20416;-92
2022/03/30 04:02:16;;;;;;;1.45;0.80;;;31.90;67.00;;;;;;4997519;28;20427;-92
2022/03/30 04:04:49;;;;;;;2.28;0.80;;;31.30;69.10;;;;;;4969917;28;20373;-87
2022/03/30 04:07:21;;;;;;;3.25;0.90;;;31.30;70.20;;;;;;5002338;28;20401;-90
2022/03/30 04:09:53;;;;;;;4.05;0.90;;;31.30;70.90;;;;;;5002163;28;20407;-83
2022/03/30 04:12:23;;;;;;;1.98;0.80;;;31.30;70.10;;;;;;5000686;28;20760;-83
2022/03/30 04:14:51;;;;;;;2.00;0.70;;;31.20;71.60;;;;;;5002374;28;20460;-84
2022/03/30 04:17:18;;;;;;;1.88;0.80;;;31.10;71.50;;;;;;4994148;28;21010;-93
2022/03/30 04:19:47;;;;;;;4.70;1.00;;;30.10;73.10;;;;;;4993455;28;20361;-84
2022/03/30 04:22:14;;;;;;;3.03;0.90;;;29.70;74.60;;;;;;5019533;28;20436;-95
2022/03/30 04:24:41;;;;;;;5.10;0.93;;;29.90;73.70;;;;;;5037914;28;20374;-94
2022/03/30 04:27:08;;;;;;;3.92;1.00;;;29.20;75.10;;;;;;5044194;28;20377;-86
2022/03/30 04:29:35;;;;;;;3.20;0.80;;;28.80;77.20;;;;;;5035912;28;20459;-85
2022/03/30 04:32:08;;;;;;;2.47;0.90;;;28.40;80.00;;;;;;5036064;28;20719;-87
2022/03/30 04:34:34;;;;;;;3.00;0.95;;;27.90;81.40;;;;;;5015049;28;20468;-92
2022/03/30 04:37:02;;;;;;;2.88;1.00;;;27.50;82.80;;;;;;5038116;28;20416;-90
2022/03/30 04:39:29;;;;;;;3.95;1.02;;;27.60;82.90;;;;;;5035062;28;20769;-85
2022/03/30 04:41:55;;;;;;;5.75;1.00;;;27.70;83.60;;;;;;5035512;28;20393;-95
2022/03/30 04:44:25;;;;;;;5.10;0.90;;;27.70;83.70;;;;;;5032368;28;20485;-84
2022/03/30 04:46:52;;;;;;;4.80;1.10;;;27.80;85.80;;;;;;5014083;28;20389;-88
2022/03/30 04:49:20;;;;;;;4.45;1.00;;;27.90;85.20;;;;;;5029901;28;20382;-90
2022/03/30 04:51:47;;;;;;;4.45;0.90;;;27.70;86.60;;;;;;5035488;28;20370;-90
2022/03/30 04:54:18;;;;;;;3.47;0.90;;;27.10;90.40;;;;;;5036826;28;20377;-95
2022/03/30 04:56:51;;;;;;;2.75;0.88;;;26.60;92.50;;;;;;5035299;28;20415;-95
2022/03/30 04:59:21;;;;;;;2.00;0.80;;;26.40;93.80;;;;;;5035020;28;20373;-87
2022/03/30 05:01:50;;;;;;;2.78;0.77;;;25.80;95.10;;;;;;5033084;28;20442;-88
2022/03/30 05:04:17;;;;;;;3.13;0.80;;;25.60;97.60;;;;;;5032712;28;20439;-94
2022/03/30 05:06:44;;;;;;;1.60;0.60;;;25.40;97.50;;;;;;5035164;28;20380;-83
2022/03/30 05:09:12;;;;;;;2.10;0.75;;;25.30;98.30;;;;;;5033327;28;20386;-90
2022/03/30 05:11:40;;;;;;;2.70;0.70;;;25.50;98.40;;;;;;5033779;28;20425;-82
2022/03/30 05:14:07;;;;;;;2.03;0.70;;;26.00;97.80;;;;;;5035221;28;20404;-84
2022/03/30 05:16:34;;;;;;;5.25;0.90;;;25.90;98.00;;;;;;5037205;28;20451;-85
2022/03/30 05:19:02;;;;;;;4.55;0.88;;;25.90;98.50;;;;;;5015700;28;20378;-85
2022/03/30 05:21:30;;;;;;;3.33;0.68;;;26.00;98.80;;;;;;5032303;28;20809;-91
2022/03/30 05:24:18;;;;;;;2.78;0.80;;;26.10;99.00;;;;;;5031121;28;20369;-94
2022/03/30 05:26:45;;;;;;;3.10;0.70;;;26.20;98.80;;;;;;5014100;28;20428;-89
2022/03/30 05:29:14;;;;;;;1.48;0.88;;;26.60;99.80;;;;;;5036095;28;20404;-83
2022/03/30 05:31:41;;;;;;;2.00;0.80;;;26.00;99.90;;;;;;5036348;28;20377;-85
2022/03/30 05:34:09;;;;;;;2.67;1.10;;;26.20;99.90;;;;;;5033610;28;20750;-86
2022/03/30 05:36:37;;;;;;;4.50;1.20;;;25.80;99.90;;;;;;5034378;28;20401;-92
2022/03/30 05:39:04;;;;;;;2.67;0.98;;;25.30;99.90;;;;;;5034908;28;20389;-83
2022/03/30 05:41:33;;;;;;;2.20;1.00;;;25.80;99.90;;;;;;5034576;28;20738;-83
2022/03/30 05:44:02;;;;;;;1.70;1.10;;;26.10;99.60;;;;;;5036792;28;20405;-80
2022/03/30 05:46:30;;;;;;;3.90;1.00;;;26.10;99.90;;;;;;5041112;28;20370;-88
2022/03/30 05:48:57;;;;;;;4.97;1.23;;;26.30;99.10;;;;;;5040892;28;20409;-85
2022/03/30 05:51:24;;;;;;;3.47;1.07;;;26.00;98.30;;;;;;5039623;28;20385;-82
2022/03/30 05:53:51;;;;;;;3.58;1.40;;;25.60;99.10;;;;;;5033479;28;20869;-91
2022/03/30 05:56:18;;;;;;;1.65;1.10;;;26.20;99.90;;;;;;5031403;28;20409;-92
2022/03/30 05:58:48;;;;;;;2.67;1.20;;;27.10;97.90;;;;;;5032069;28;20373;-86
2022/03/30 06:01:17;;;;;;;2.80;1.20;;;27.90;95.90;;;;;;5032047;28;20416;-89
2022/03/30 06:03:50;;;;;;;6.35;1.25;;;28.60;92.80;;;;;;5035250;28;20451;-86
2022/03/30 06:06:18;;;;;;;3.50;1.20;;;28.40;91.10;;;;;;5031681;28;20400;-91
2022/03/30 06:08:46;;;;;;;4.35;1.15;;;28.00;91.90;;;;;;5031393;28;20399;-84
2022/03/30 06:11:12;;;;;;;4.28;1.30;;;28.00;91.50;;;;;;5032439;28;20460;-89
2022/03/30 06:13:39;;;;;;;4.63;1.20;;;28.10;91.00;;;;;;5032598;28;20439;-94
2022/03/30 06:16:07;;;;;;;5.05;1.30;;;27.70;91.30;;;;;;5031212;28;20385;-89
2022/03/30 06:18:34;;;;;;;7.30;1.25;;;26.90;93.40;;;;;;5031830;28;20432;-93
2022/03/30 06:21:02;;;;;;;4.32;1.33;;;26.20;95.50;;;;;;5031709;28;20373;-83
2022/03/30 06:23:29;;;;;;;4.60;1.20;;;25.40;98.30;;;;;;5031668;28;20378;-84
2022/03/30 06:25:56;;;;;;;5.53;1.40;;;25.10;99.90;;;;;;5029166;28;20476;-83
2022/03/30 06:28:26;;;;;;;3.20;1.20;;;24.80;99.90;;;;;;5031670;28;20374;-83
2022/03/30 06:30:53;;;;;;;4.97;1.20;;;24.80;99.90;;;;;;5031663;28;20402;-91
2022/03/30 06:33:20;;;;;;;3.88;1.30;;;24.90;99.90;;;;;;5034400;28;20361;-85
2022/03/30 06:35:47;;;;;;;3.88;1.38;;;24.90;99.90;;;;;;5037508;28;20813;-94
2022/03/30 06:38:14;;;;;;;3.97;1.20;;;24.80;99.90;;;;;;5036000;28;20738;-83
2022/03/30 06:40:47;;;;;;;4.70;1.20;;;24.70;99.90;;;;;;5035490;28;20427;-84
2022/03/30 06:43:17;;;;;;;3.47;1.05;;;24.60;99.90;;;;;;5034769;28;20401;-84
2022/03/30 06:45:46;;;;;;;4.15;1.00;;;24.40;99.90;;;;;;5034548;28;20374;-85
2022/03/30 06:48:15;;;;;;;6.85;1.30;;;24.10;99.90;;;;;;5034788;28;20381;-83
2022/03/30 06:50:42;;;;;;;4.80;1.13;;;24.20;99.90;;;;;;5001071;28;20385;-89
2022/03/30 06:53:10;;;;;;;4.28;1.02;;;23.50;99.90;;;;;;5034506;28;20380;-83
2022/03/30 06:55:40;;;;;;;3.38;1.10;;;23.20;99.90;;;;;;5035640;28;20890;-86
2022/03/30 06:58:07;;;;;;;3.03;1.13;;;22.80;99.90;;;;;;5034364;28;20412;-85
2022/03/30 07:00:35;;;;;;;3.15;1.00;;;22.40;99.90;;;;;;5031759;28;20378;-81
2022/03/30 07:03:02;;;;;;;2.27;0.90;;;21.90;99.90;;;;;;5031787;28;20437;-86
2022/03/30 07:05:31;;;;;;;2.00;0.88;;;21.50;99.90;;;;;;5032175;28;20373;-85
2022/03/30 07:10:44;;;;;;;1.70;1.00;;;20.80;99.90;;;;;;5032332;28;20361;-94
2022/03/30 07:13:14;;;;;;;2.22;1.13;;;20.50;99.90;;;;;;5031440;28;20387;-87
2022/03/30 07:15:41;;;;;;;2.45;1.70;;;20.20;99.90;;;;;;5031827;28;20397;-82
2022/03/30 07:18:08;;;;;;;2.72;1.60;;;20.10;99.90;;;;;;5032019;28;20390;-93
2022/03/30 07:20:37;;;;;;;4.75;2.58;;;20.00;99.90;;;;;;5032430;28;20453;-91
2022/03/30 07:23:04;;;;;;;2.10;1.58;;;20.00;99.90;;;;;;5032014;28;20386;-96
2022/03/30 07:25:31;;;;;;;4.57;1.55;;;20.00;99.90;;;;;;5032912;28;20456;-93
2022/03/30 07:28:02;;;;;;;1.93;1.50;;;20.00;99.90;;;;;;5032255;28;20765;-85
2022/03/30 07:30:30;;;;;;;2.88;1.60;;;19.80;99.90;;;;;;5032845;28;20738;-88
2022/03/30 07:32:58;;;;;;;2.10;1.40;;;19.80;99.90;;;;;;5031630;28;20809;-90
2022/03/30 07:35:33;;;;;;;2.67;1.53;;;19.70;99.90;;;;;;5031197;28;20366;-87
2022/03/30 07:38:00;;;;;;;4.63;1.83;;;19.60;99.90;;;;;;5031945;28;20414;-90
2022/03/30 07:40:29;;;;;;;3.20;1.92;;;19.60;99.90;;;;;;5031725;28;20373;-92
2022/03/30 07:42:57;;;;;;;2.40;1.73;;;19.60;99.90;;;;;;5012985;28;20394;-81
2022/03/30 07:45:26;;;;;;;3.03;1.63;;;19.60;99.90;;;;;;5031912;28;20420;-88
2022/03/30 07:47:53;;;;;;;2.47;1.48;;;19.60;99.90;;;;;;5035206;28;20523;-88
2022/03/30 07:50:20;;;;;;;2.00;1.40;;;19.70;99.90;;;;;;5032117;28;20913;-89
2022/03/30 07:52:48;;;;;;;2.13;1.70;;;19.70;99.90;;;;;;5016163;28;20472;-93
2022/03/30 07:55:15;;;;;;;2.28;1.60;;;19.70;99.90;;;;;;5016141;28;20424;-89
2022/03/30 07:57:43;;;;;;;3.15;1.80;;;19.70;99.90;;;;;;5033099;28;20405;-84
2022/03/30 08:00:15;;;;;;;1.90;1.80;;;19.70;99.90;;;;;;5033223;28;20431;-82
2022/03/30 08:02:47;;;;;;;3.83;1.90;;;19.80;99.90;;;;;;5032517;28;20426;-82
2022/03/30 08:05:15;;;;;;;4.55;2.20;;;19.90;99.90;;;;;;5031497;28;20381;-82
2022/03/30 08:07:49;;;;;;;3.58;2.25;;;19.90;99.90;;;;;;5032746;28;20382;-82
2022/03/30 08:10:16;;;;;;;2.40;1.90;;;19.90;99.90;;;;;;5032990;28;20376;-95
2022/03/30 08:12:44;;;;;;;2.78;1.95;;;20.00;99.90;;;;;;5036483;28;20396;-83
2022/03/30 08:15:13;;;;;;;3.20;1.92;;;20.00;99.90;;;;;;5045545;28;20392;-81
2022/03/30 08:17:41;;;;;;;2.45;1.50;;;20.00;99.90;;;;;;5042158;28;20412;-83
2022/03/30 08:20:08;;;;;;;2.70;1.50;;;20.00;99.90;;;;;;5032836;28;20421;-83
2022/03/30 08:22:35;;;;;;;2.70;1.33;;;20.00;99.90;;;;;;5028583;28;20386;-85
2022/03/30 08:25:10;;;;;;;2.60;1.30;;;20.00;99.90;;;;;;5044324;28;20846;-82
2022/03/30 08:27:40;;;;;;;1.53;1.10;;;20.10;99.90;;;;;;5044302;28;20453;-84
2022/03/30 08:30:08;;;;;;;2.10;1.10;;;20.10;99.90;;;;;;5045082;28;20391;-82
2022/03/30 08:32:35;;;;;;;3.28;1.20;;;20.20;99.90;;;;;;5043063;28;20369;-82
2022/03/30 08:35:05;;;;;;;1.42;1.10;;;20.20;99.90;;;;;;5047133;28;20377;-85
2022/03/30 08:37:32;;;;;;;3.35;1.10;;;20.20;99.90;;;;;;5043472;28;20397;-81
2022/03/30 08:39:59;;;;;;;2.05;1.10;;;20.10;99.90;;;;;;5028113;28;20377;-85
2022/03/30 08:42:27;;;;;;;1.70;1.10;;;20.10;99.90;;;;;;5045195;28;20451;-85
2022/03/30 08:44:55;;;;;;;1.77;1.10;;;20.00;99.90;;;;;;5045273;28;20377;-86
2022/03/30 08:47:22;;;;;;;1.50;1.10;;;20.00;99.90;;;;;;5045265;28;20517;-82
2022/03/30 08:49:51;;;;;;;1.10;1.00;;;20.00;99.90;;;;;;5042383;28;20377;-89
2022/03/30 08:52:18;;;;;;;1.75;1.00;;;20.00;99.90;;;;;;5041169;28;20397;-83
2022/03/30 08:54:49;;;;;;;2.03;1.00;;;20.00;99.90;;;;;;5042189;28;20828;-83
2022/03/30 08:57:17;;;;;;;1.90;1.10;;;19.90;99.90;;;;;;5041310;28;20401;-86
2022/03/30 09:00:08;;;;;;;1.20;1.10;;;19.90;99.90;;;;;;5042635;28;20857;-86
2022/03/30 09:02:36;;;;;;;1.42;1.10;;;19.90;99.90;;;;;;5051302;28;20384;-88
2022/03/30 09:05:18;;;;;;;1.15;1.05;;;19.90;99.90;;;;;;5052662;28;20365;-84
2022/03/30 09:07:50;;;;;;;1.77;1.00;;;19.80;99.90;;;;;;5052085;28;20382;-80
2022/03/30 09:10:20;;;;;;;1.88;1.00;;;19.70;99.90;;;;;;5051302;28;20381;-87
2022/03/30 09:12:50;;;;;;;1.63;1.00;;;19.80;99.90;;;;;;5050232;28;20369;-80
2022/03/30 09:15:17;;;;;;;1.38;1.00;;;19.80;99.90;;;;;;5049184;28;20397;-82
2022/03/30 09:17:45;;;;;;;2.33;1.20;;;19.80;99.90;;;;;;5050188;28;20386;-82
2022/03/30 09:20:17;;;;;;;4.13;1.10;;;19.80;99.90;;;;;;5046919;28;20388;-84
2022/03/30 09:22:50;;;;;;;7.55;1.60;;;19.80;99.90;;;;;;5050684;28;20396;-84
2022/03/30 09:25:18;;;;;;;5.35;1.30;;;19.80;99.90;;;;;;5051425;28;20414;-84
2022/03/30 09:27:47;;;;;;;3.30;1.25;;;19.80;99.90;;;;;;5052227;28;20475;-90
2022/03/30 09:30:16;;;;;;;7.60;1.50;;;19.80;99.90;;;;;;5049512;28;20362;-86
2022/03/30 09:32:45;;;;;;;3.33;1.30;;;19.80;99.90;;;;;;5035445;28;20381;-91
2022/03/30 09:35:32;;;;;;;2.85;1.20;;;19.80;99.90;;;;;;5036909;28;20412;-89
2022/03/30 09:38:19;;;;;;;3.40;1.17;;;19.80;99.90;;;;;;5032339;28;20488;-89
2022/03/30 09:40:54;;;;;;;4.33;1.30;;;19.70;99.90;;;;;;5033561;28;20548;-89
2022/03/30 09:43:34;;;;;;;3.75;1.33;;;19.50;99.90;;;;;;5013856;28;20411;-93
2022/03/30 09:46:08;;;;;;;2.20;1.60;;;19.20;99.90;;;;;;5029918;28;20880;-87
2022/03/30 09:48:49;;;;;;;4.77;1.70;;;19.00;99.90;;;;;;5029919;28;20376;-94
2022/03/30 09:51:18;;;;;;;3.70;1.80;;;18.90;99.90;;;;;;5012350;28;20790;-84
2022/03/30 09:53:46;;;;;;;1.92;1.70;;;18.80;99.90;;;;;;5029335;28;20449;-89
2022/03/30 09:56:21;;;;;;;4.35;2.22;;;18.60;99.90;;;;;;5035490;28;20405;-83
2022/03/30 09:58:50;;;;;;;4.25;2.35;;;18.50;99.90;;;;;;5033793;28;20403;-84
2022/03/30 10:01:29;;;;;;;2.33;2.10;;;18.50;99.90;;;;;;5030399;28;20416;-88
2022/03/30 10:04:04;;;;;;;5.22;2.40;;;18.60;99.90;;;;;;5030030;28;20378;-88
2022/03/30 10:06:40;;;;;;;9.03;2.20;;;18.50;99.90;;;;;;5030322;28;20400;-90
2022/03/30 10:09:07;;;;;;;4.63;1.75;;;18.50;99.90;;;;;;5035208;28;20366;-90
2022/03/30 10:11:34;;;;;;;2.60;1.60;;;18.50;99.90;;;;;;5042249;28;20377;-80
2022/03/30 10:14:05;;;;;;;3.15;1.70;;;18.50;99.90;;;;;;5045431;28;20452;-94
2022/03/30 10:16:32;;;;;;;3.10;1.40;;;18.50;99.90;;;;;;5033840;28;20762;-87
2022/03/30 10:18:59;;;;;;;3.55;1.48;;;18.60;99.90;;;;;;5033605;28;20719;-83
2022/03/30 10:21:56;;;;;;;3.50;1.50;;;18.60;99.90;;;;;;5033927;28;20378;-90
2022/03/30 10:24:45;;;;;;;2.28;1.30;;;18.70;99.90;;;;;;5033638;28;20772;-91
2022/03/30 10:27:53;;;;;;;2.75;1.33;;;18.80;99.90;;;;;;5034166;28;20725;-94
2022/03/30 10:30:32;;;;;;;4.18;1.30;;;18.90;99.90;;;;;;4973088;28;20457;-82
2022/03/30 10:33:02;;;;;;;3.60;1.20;;;18.90;99.90;;;;;;4972676;28;20473;-92
2022/03/30 10:35:50;;;;;;;2.58;1.15;;;18.90;99.90;;;;;;4956788;28;20474;-92
2022/03/30 10:38:17;;;;;;;1.83;1.27;;;18.80;99.90;;;;;;4972532;28;20394;-85
2022/03/30 10:40:45;;;;;;;2.17;1.10;;;18.90;99.90;;;;;;4972459;28;20379;-84
2022/03/30 10:43:31;;;;;;;3.17;1.05;;;18.90;99.90;;;;;;4972316;28;20410;-85
2022/03/30 10:46:04;;;;;;;2.85;1.10;;;18.90;99.90;;;;;;4972599;28;20462;-89
2022/03/30 10:48:31;;;;;;;2.00;1.10;;;18.90;99.90;;;;;;4972156;28;20468;-85
2022/03/30 10:51:13;;;;;;;1.50;1.00;;;18.90;99.90;;;;;;4972063;28;20418;-89
2022/03/30 10:53:46;;;;;;;2.90;1.27;;;18.90;99.90;;;;;;4971554;28;20445;-81
2022/03/30 10:56:18;;;;;;;2.45;1.20;;;19.00;99.90;;;;;;4971485;28;20437;-86
2022/03/30 10:58:55;;;;;;;2.28;1.15;;;19.00;99.90;;;;;;4971743;28;20784;-90
2022/03/30 11:01:28;;;;;;;2.22;1.30;;;19.00;99.90;;;;;;4972170;28;20500;-86
2022/03/30 11:04:00;;;;;;;1.98;1.38;;;19.00;99.90;;;;;;4971851;28;20399;-85
2022/03/30 11:06:29;;;;;;;3.70;1.40;;;19.00;99.90;;;;;;4979135;28;20445;-90
2022/03/30 11:08:58;;;;;;;2.60;1.43;;;19.00;99.90;;;;;;5032491;28;20977;-89
2022/03/30 11:11:34;;;;;;;2.30;1.58;;;19.00;99.90;;;;;;5032733;28;20381;-89
2022/03/30 11:14:43;;;;;;;2.50;1.65;;;19.00;99.90;;;;;;5032433;28;20773;-82
2022/03/30 11:17:15;;;;;;;1.70;1.60;;;18.80;99.90;;;;;;5032135;28;20432;-84
2022/03/30 11:19:49;;;;;;;2.60;1.70;;;18.80;99.90;;;;;;5031258;28;20874;-89
2022/03/30 11:22:22;;;;;;;3.25;1.90;;;18.70;99.90;;;;;;5031918;28;20381;-84
2022/03/30 11:25:10;;;;;;;1.95;1.80;;;18.60;99.90;;;;;;5032125;28;20376;-91
2022/03/30 11:27:38;;;;;;;2.53;1.70;;;18.60;99.90;;;;;;5031847;28;20389;-86
2022/03/30 11:30:15;;;;;;;1.80;1.70;;;18.50;99.90;;;;;;5031979;28;20448;-89
2022/03/30 11:32:51;;;;;;;2.55;1.83;;;18.50;99.90;;;;;;5033006;28;20380;-91
2022/03/30 11:35:21;;;;;;;5.82;2.28;;;18.50;99.90;;;;;;5015559;28;20428;-91
2022/03/30 11:38:04;;;;;;;3.67;2.20;;;18.50;99.90;;;;;;5031444;28;20405;-86
2022/03/30 11:40:42;;;;;;;3.40;2.30;;;18.50;99.90;;;;;;5032414;28;20718;-89
2022/03/30 11:43:10;;;;;;;2.57;2.37;;;18.50;99.90;;;;;;5030725;28;20432;-89
2022/03/30 11:45:38;;;;;;;2.95;2.42;;;18.40;99.90;;;;;;5031231;28;20476;-90
2022/03/30 11:48:06;;;;;;;3.25;2.83;;;18.40;99.90;;;;;;5030457;28;20398;-89
2022/03/30 11:50:35;;;;;;;3.08;2.78;;;18.40;99.90;;;;;;5030848;28;20741;-82
2022/03/30 11:53:12;;;;;;;4.10;2.97;;;18.30;99.90;;;;;;5012851;28;20422;-90
2022/03/30 11:55:57;;;;;;;3.28;2.80;;;18.30;99.90;;;;;;5030671;28;20393;-84
2022/03/30 11:58:34;;;;;;;3.67;3.10;;;18.20;99.90;;;;;;5045941;28;20381;-88
2022/03/30 12:01:04;;;;;;;3.80;3.30;;;18.20;99.90;;;;;;5031007;28;20389;-89
2022/03/30 12:03:31;;;;;;;4.07;3.55;;;19.20;99.90;;;;;;5030597;28;20374;-88
2022/03/30 12:06:02;;;;;;;6.40;3.33;;;18.20;99.90;;;;;;5033637;28;20381;-91
2022/03/30 12:08:39;;;;;;;5.18;3.55;;;18.20;99.90;;;;;;5039991;28;20370;-82
2022/03/30 12:11:06;;;;;;;5.80;3.35;;;18.20;99.90;;;;;;5038809;28;20380;-82
2022/03/30 12:13:34;;;;;;;6.53;3.80;;;18.20;99.90;;;;;;5031643;28;20382;-86
2022/03/30 12:16:15;;;;;;;5.22;3.92;;;18.20;99.90;;;;;;5030732;28;20386;-90
2022/03/30 12:18:47;;;;;;;5.13;3.80;;;18.20;99.90;;;;;;5030376;28;20389;-87
2022/03/30 12:21:30;;;;;;;6.03;3.92;;;18.20;99.90;;;;;;5031113;28;20387;-83
2022/03/30 12:24:03;;;;;;;5.37;4.30;;;18.20;99.90;;;;;;5031184;28;20382;-92
2022/03/30 12:26:34;;;;;;;6.13;4.15;;;18.20;99.90;;;;;;5032940;28;20366;-86
2022/03/30 12:29:09;;;;;;;8.20;4.80;;;18.20;99.90;;;;;;5030944;28;20436;-88
2022/03/30 12:31:37;;;;;;;6.45;4.90;;;18.10;99.90;;;;;;5029962;28;20460;-93
2022/03/30 12:34:19;;;;;;;7.18;4.95;;;18.10;99.90;;;;;;5030696;28;20384;-86
2022/03/30 12:36:54;;;;;;;7.03;5.10;;;18.10;99.90;;;;;;5030225;28;20413;-88
2022/03/30 12:39:25;;;;;;;7.97;5.60;;;18.10;99.90;;;;;;5029894;28;20423;-86
2022/03/30 12:42:02;;;;;;;7.43;5.60;;;18.10;99.90;;;;;;5036767;28;20384;-86
2022/03/30 12:44:41;;;;;;;6.40;5.18;;;18.00;99.90;;;;;;5037893;28;20393;-82
2022/03/30 12:47:28;;;;;;;8.43;5.63;;;18.00;99.90;;;;;;5031494;28;20396;-91
2022/03/30 12:49:56;;;;;;;9.03;5.50;;;18.00;99.90;;;;;;5030323;28;20366;-84
2022/03/30 12:52:32;;;;;;;10.45;5.40;;;18.00;99.90;;;;;;5031167;28;20382;-83
2022/03/30 12:55:32;;;;;;;6.78;5.00;;;18.00;99.90;;;;;;5031672;28;20370;-90
2022/03/30 12:58:13;;;;;;;6.53;4.82;;;18.00;99.90;;;;;;5039797;28;20401;-88
2022/03/30 13:00:45;;;;;;;7.03;4.78;;;18.00;99.90;;;;;;5032388;28;20418;-91
2022/03/30 13:03:16;;;;;;;6.40;4.20;;;18.00;99.90;;;;;;5030316;28;20389;-90
2022/03/30 13:05:48;;;;;;;4.32;3.30;;;18.00;99.90;;;;;;5029829;28;20387;-89
2022/03/30 13:08:20;;;;;;;6.82;3.92;;;18.00;99.90;;;;;;5012093;28;20841;-84
2022/03/30 13:11:00;;;;;;;4.07;3.30;;;18.00;99.90;;;;;;5030001;28;20431;-90
2022/03/30 13:13:30;;;;;;;4.65;3.00;;;18.00;99.90;;;;;;5029442;28;20387;-87
2022/03/30 13:16:10;;;;;;;4.10;2.83;;;18.10;99.90;;;;;;5029280;28;20731;-90